sensor_id;sensor_type;location;lat;lon;timestamp;P1;durP1;ratioP1;P2;durP2;ratioP2
8702;SDS011;9002;42.708;23.186;2023-08-20T00:01:21;8.17;;;7.37;;
8702;SDS011;9002;42.708;23.186;2023-08-20T00:03:50;9.03;;;7.43;;
8702;SDS011;9002;42.708;23.186;2023-08-20T00:06:18;9.47;;;8.47;;
8702;SDS011;9002;42.708;23.186;2023-08-20T00:08:45;8.67;;;7.80;;
8702;SDS011;9002;42.708;23.186;2023-08-20T00:11:12;8.83;;;8.03;;
8702;SDS011;9002;42.708;23.186;2023-08-20T00:13:39;8.50;;;7.70;;
8702;SDS011;9002;42.708;23.186;2023-08-20T00:16:08;8.50;;;7.67;;
8702;SDS011;9002;42.708;23.186;2023-08-20T00:18:36;9.57;;;8.57;;
8702;SDS011;9002;42.708;23.186;2023-08-20T00:21:04;8.73;;;7.87;;
8702;SDS011;9002;42.708;23.186;2023-08-20T00:23:31;9.07;;;8.13;;
8702;SDS011;9002;42.708;23.186;2023-08-20T00:25:59;8.47;;;7.30;;
8702;SDS011;9002;42.708;23.186;2023-08-20T00:28:27;8.13;;;7.33;;
8702;SDS011;9002;42.708;23.186;2023-08-20T00:30:53;9.47;;;8.37;;
8702;SDS011;9002;42.708;23.186;2023-08-20T00:33:22;8.97;;;8.07;;
8702;SDS011;9002;42.708;23.186;2023-08-20T00:35:48;9.10;;;7.97;;
8702;SDS011;9002;42.708;23.186;2023-08-20T00:38:16;9.67;;;7.87;;
8702;SDS011;9002;42.708;23.186;2023-08-20T00:40:42;9.93;;;8.03;;
8702;SDS011;9002;42.708;23.186;2023-08-20T00:43:09;10.10;;;7.80;;
8702;SDS011;9002;42.708;23.186;2023-08-20T00:45:36;9.47;;;7.87;;
8702;SDS011;9002;42.708;23.186;2023-08-20T00:48:03;9.00;;;8.10;;
8702;SDS011;9002;42.708;23.186;2023-08-20T00:50:32;8.97;;;8.13;;
8702;SDS011;9002;42.708;23.186;2023-08-20T00:53:00;8.23;;;7.43;;
8702;SDS011;9002;42.708;23.186;2023-08-20T00:55:27;8.50;;;7.73;;
8702;SDS011;9002;42.708;23.186;2023-08-20T00:57:54;8.97;;;7.63;;
8702;SDS011;9002;42.708;23.186;2023-08-20T01:00:21;10.03;;;7.93;;
8702;SDS011;9002;42.708;23.186;2023-08-20T01:02:50;8.90;;;8.00;;
8702;SDS011;9002;42.708;23.186;2023-08-20T01:05:16;8.83;;;7.80;;
8702;SDS011;9002;42.708;23.186;2023-08-20T01:10:40;9.37;;;8.47;;
8702;SDS011;9002;42.708;23.186;2023-08-20T01:13:14;8.53;;;7.73;;
8702;SDS011;9002;42.708;23.186;2023-08-20T01:15:41;9.60;;;8.60;;
8702;SDS011;9002;42.708;23.186;2023-08-20T01:18:08;10.67;;;8.67;;
8702;SDS011;9002;42.708;23.186;2023-08-20T01:20:36;9.97;;;9.10;;
8702;SDS011;9002;42.708;23.186;2023-08-20T01:23:17;9.73;;;8.73;;
8702;SDS011;9002;42.708;23.186;2023-08-20T01:26:07;9.30;;;8.40;;
8702;SDS011;9002;42.708;23.186;2023-08-20T01:28:43;9.47;;;8.47;;
8702;SDS011;9002;42.708;23.186;2023-08-20T01:31:11;10.40;;;9.33;;
8702;SDS011;9002;42.708;23.186;2023-08-20T01:33:39;10.93;;;8.93;;
8702;SDS011;9002;42.708;23.186;2023-08-20T01:36:07;10.50;;;9.43;;
8702;SDS011;9002;42.708;23.186;2023-08-20T01:38:35;10.20;;;9.10;;
8702;SDS011;9002;42.708;23.186;2023-08-20T01:41:03;10.43;;;9.33;;
8702;SDS011;9002;42.708;23.186;2023-08-20T01:43:29;10.43;;;9.40;;
8702;SDS011;9002;42.708;23.186;2023-08-20T01:45:58;11.63;;;9.47;;
8702;SDS011;9002;42.708;23.186;2023-08-20T01:48:24;11.57;;;9.20;;
8702;SDS011;9002;42.708;23.186;2023-08-20T01:50:51;10.60;;;9.50;;
8702;SDS011;9002;42.708;23.186;2023-08-20T01:53:18;13.37;;;9.53;;
8702;SDS011;9002;42.708;23.186;2023-08-20T01:55:45;12.27;;;9.50;;
8702;SDS011;9002;42.708;23.186;2023-08-20T01:58:12;9.77;;;8.73;;
8702;SDS011;9002;42.708;23.186;2023-08-20T02:00:40;10.83;;;9.80;;
8702;SDS011;9002;42.708;23.186;2023-08-20T02:03:08;10.43;;;9.40;;
8702;SDS011;9002;42.708;23.186;2023-08-20T02:05:35;10.90;;;9.80;;
8702;SDS011;9002;42.708;23.186;2023-08-20T02:08:03;13.73;;;9.80;;
8702;SDS011;9002;42.708;23.186;2023-08-20T02:10:30;10.67;;;9.57;;
8702;SDS011;9002;42.708;23.186;2023-08-20T02:12:57;10.77;;;9.73;;
8702;SDS011;9002;42.708;23.186;2023-08-20T02:15:23;10.50;;;9.40;;
8702;SDS011;9002;42.708;23.186;2023-08-20T02:17:50;10.70;;;9.60;;
8702;SDS011;9002;42.708;23.186;2023-08-20T02:20:18;10.30;;;9.30;;
8702;SDS011;9002;42.708;23.186;2023-08-20T02:22:45;10.60;;;9.30;;
8702;SDS011;9002;42.708;23.186;2023-08-20T02:25:12;10.20;;;9.30;;
8702;SDS011;9002;42.708;23.186;2023-08-20T02:27:39;10.60;;;9.50;;
8702;SDS011;9002;42.708;23.186;2023-08-20T02:30:06;10.77;;;9.30;;
8702;SDS011;9002;42.708;23.186;2023-08-20T02:32:33;10.40;;;9.33;;
8702;SDS011;9002;42.708;23.186;2023-08-20T02:35:00;10.43;;;9.43;;
8702;SDS011;9002;42.708;23.186;2023-08-20T02:37:31;11.87;;;9.23;;
8702;SDS011;9002;42.708;23.186;2023-08-20T02:39:58;11.33;;;9.77;;
8702;SDS011;9002;42.708;23.186;2023-08-20T02:42:24;10.33;;;9.30;;
8702;SDS011;9002;42.708;23.186;2023-08-20T02:44:51;10.10;;;9.20;;
8702;SDS011;9002;42.708;23.186;2023-08-20T02:47:18;10.80;;;9.70;;
8702;SDS011;9002;42.708;23.186;2023-08-20T02:49:45;10.50;;;9.47;;
8702;SDS011;9002;42.708;23.186;2023-08-20T02:52:11;14.10;;;11.47;;
8702;SDS011;9002;42.708;23.186;2023-08-20T02:54:39;11.13;;;9.93;;
8702;SDS011;9002;42.708;23.186;2023-08-20T02:57:06;11.53;;;9.83;;
8702;SDS011;9002;42.708;23.186;2023-08-20T02:59:33;10.80;;;9.73;;
8702;SDS011;9002;42.708;23.186;2023-08-20T03:01:59;10.43;;;9.33;;
8702;SDS011;9002;42.708;23.186;2023-08-20T03:04:26;10.70;;;9.63;;
8702;SDS011;9002;42.708;23.186;2023-08-20T03:06:54;10.20;;;9.20;;
8702;SDS011;9002;42.708;23.186;2023-08-20T03:09:20;10.80;;;9.70;;
8702;SDS011;9002;42.708;23.186;2023-08-20T03:11:48;10.40;;;9.50;;
8702;SDS011;9002;42.708;23.186;2023-08-20T03:14:15;10.33;;;8.93;;
8702;SDS011;9002;42.708;23.186;2023-08-20T03:16:42;10.67;;;9.43;;
8702;SDS011;9002;42.708;23.186;2023-08-20T03:19:08;11.13;;;9.73;;
8702;SDS011;9002;42.708;23.186;2023-08-20T03:21:35;11.80;;;9.47;;
8702;SDS011;9002;42.708;23.186;2023-08-20T03:24:02;10.30;;;9.10;;
8702;SDS011;9002;42.708;23.186;2023-08-20T03:26:29;11.37;;;10.27;;
8702;SDS011;9002;42.708;23.186;2023-08-20T03:28:57;10.57;;;9.57;;
8702;SDS011;9002;42.708;23.186;2023-08-20T03:31:24;10.10;;;9.10;;
8702;SDS011;9002;42.708;23.186;2023-08-20T03:33:51;10.80;;;9.70;;
8702;SDS011;9002;42.708;23.186;2023-08-20T03:36:17;11.17;;;10.07;;
8702;SDS011;9002;42.708;23.186;2023-08-20T03:38:44;10.37;;;9.40;;
8702;SDS011;9002;42.708;23.186;2023-08-20T03:41:11;10.53;;;9.53;;
8702;SDS011;9002;42.708;23.186;2023-08-20T03:43:38;12.43;;;9.80;;
8702;SDS011;9002;42.708;23.186;2023-08-20T03:46:06;11.10;;;10.00;;
8702;SDS011;9002;42.708;23.186;2023-08-20T03:48:32;11.20;;;9.93;;
8702;SDS011;9002;42.708;23.186;2023-08-20T03:50:59;12.83;;;9.87;;
8702;SDS011;9002;42.708;23.186;2023-08-20T03:53:26;10.77;;;9.67;;
8702;SDS011;9002;42.708;23.186;2023-08-20T03:55:52;11.27;;;10.03;;
8702;SDS011;9002;42.708;23.186;2023-08-20T03:58:19;11.40;;;10.20;;
8702;SDS011;9002;42.708;23.186;2023-08-20T04:00:46;11.07;;;9.70;;
8702;SDS011;9002;42.708;23.186;2023-08-20T04:03:14;16.30;;;12.57;;
8702;SDS011;9002;42.708;23.186;2023-08-20T04:05:44;12.90;;;11.47;;
8702;SDS011;9002;42.708;23.186;2023-08-20T04:08:11;12.87;;;11.13;;
8702;SDS011;9002;42.708;23.186;2023-08-20T04:10:42;12.17;;;10.70;;
8702;SDS011;9002;42.708;23.186;2023-08-20T04:13:09;11.57;;;10.37;;
8702;SDS011;9002;42.708;23.186;2023-08-20T04:15:36;12.20;;;10.87;;
8702;SDS011;9002;42.708;23.186;2023-08-20T04:18:03;11.80;;;10.57;;
8702;SDS011;9002;42.708;23.186;2023-08-20T04:20:31;12.90;;;11.70;;
8702;SDS011;9002;42.708;23.186;2023-08-20T04:22:58;13.60;;;11.10;;
8702;SDS011;9002;42.708;23.186;2023-08-20T04:25:25;12.13;;;10.97;;
8702;SDS011;9002;42.708;23.186;2023-08-20T04:27:52;11.17;;;10.10;;
8702;SDS011;9002;42.708;23.186;2023-08-20T04:30:18;10.83;;;9.73;;
8702;SDS011;9002;42.708;23.186;2023-08-20T04:32:45;11.93;;;10.73;;
8702;SDS011;9002;42.708;23.186;2023-08-20T04:35:12;13.57;;;12.10;;
8702;SDS011;9002;42.708;23.186;2023-08-20T04:37:40;14.40;;;12.73;;
8702;SDS011;9002;42.708;23.186;2023-08-20T04:40:07;13.60;;;11.67;;
8702;SDS011;9002;42.708;23.186;2023-08-20T04:42:34;11.37;;;10.30;;
8702;SDS011;9002;42.708;23.186;2023-08-20T04:45:01;11.60;;;10.43;;
8702;SDS011;9002;42.708;23.186;2023-08-20T04:47:28;13.97;;;10.90;;
8702;SDS011;9002;42.708;23.186;2023-08-20T04:49:55;13.33;;;10.30;;
8702;SDS011;9002;42.708;23.186;2023-08-20T04:52:22;13.63;;;10.80;;
8702;SDS011;9002;42.708;23.186;2023-08-20T04:54:50;12.33;;;11.03;;
8702;SDS011;9002;42.708;23.186;2023-08-20T04:57:16;12.37;;;10.77;;
8702;SDS011;9002;42.708;23.186;2023-08-20T04:59:43;13.93;;;10.10;;
8702;SDS011;9002;42.708;23.186;2023-08-20T05:02:10;12.73;;;11.30;;
8702;SDS011;9002;42.708;23.186;2023-08-20T05:04:37;11.37;;;10.27;;
8702;SDS011;9002;42.708;23.186;2023-08-20T05:07:04;13.30;;;11.30;;
8702;SDS011;9002;42.708;23.186;2023-08-20T05:09:31;12.13;;;11.00;;
8702;SDS011;9002;42.708;23.186;2023-08-20T05:12:00;13.30;;;10.80;;
8702;SDS011;9002;42.708;23.186;2023-08-20T05:14:27;11.67;;;10.47;;
8702;SDS011;9002;42.708;23.186;2023-08-20T05:16:54;12.50;;;11.20;;
8702;SDS011;9002;42.708;23.186;2023-08-20T05:19:21;11.37;;;10.17;;
8702;SDS011;9002;42.708;23.186;2023-08-20T05:21:48;11.47;;;10.23;;
8702;SDS011;9002;42.708;23.186;2023-08-20T05:24:14;10.87;;;9.83;;
8702;SDS011;9002;42.708;23.186;2023-08-20T05:26:41;11.80;;;10.33;;
8702;SDS011;9002;42.708;23.186;2023-08-20T05:29:11;11.33;;;10.13;;
8702;SDS011;9002;42.708;23.186;2023-08-20T05:31:37;12.07;;;10.57;;
8702;SDS011;9002;42.708;23.186;2023-08-20T05:34:04;11.50;;;10.30;;
8702;SDS011;9002;42.708;23.186;2023-08-20T05:36:31;12.77;;;11.47;;
8702;SDS011;9002;42.708;23.186;2023-08-20T05:38:58;11.83;;;10.57;;
8702;SDS011;9002;42.708;23.186;2023-08-20T05:41:24;13.13;;;11.83;;
8702;SDS011;9002;42.708;23.186;2023-08-20T05:43:51;11.80;;;9.70;;
8702;SDS011;9002;42.708;23.186;2023-08-20T05:46:19;16.03;;;14.40;;
8702;SDS011;9002;42.708;23.186;2023-08-20T05:48:46;13.43;;;10.50;;
8702;SDS011;9002;42.708;23.186;2023-08-20T05:51:12;12.97;;;10.50;;
8702;SDS011;9002;42.708;23.186;2023-08-20T05:53:39;11.47;;;9.57;;
8702;SDS011;9002;42.708;23.186;2023-08-20T05:56:06;11.63;;;9.57;;
8702;SDS011;9002;42.708;23.186;2023-08-20T05:58:33;11.53;;;9.60;;
8702;SDS011;9002;42.708;23.186;2023-08-20T06:01:00;10.77;;;9.67;;
8702;SDS011;9002;42.708;23.186;2023-08-20T06:03:28;10.63;;;9.47;;
8702;SDS011;9002;42.708;23.186;2023-08-20T06:05:56;13.33;;;10.57;;
8702;SDS011;9002;42.708;23.186;2023-08-20T06:08:23;11.60;;;10.40;;
8702;SDS011;9002;42.708;23.186;2023-08-20T06:10:50;11.27;;;10.10;;
8702;SDS011;9002;42.708;23.186;2023-08-20T06:13:17;12.63;;;10.67;;
8702;SDS011;9002;42.708;23.186;2023-08-20T06:15:44;12.20;;;11.00;;
8702;SDS011;9002;42.708;23.186;2023-08-20T06:18:11;14.30;;;12.73;;
8702;SDS011;9002;42.708;23.186;2023-08-20T06:20:39;11.73;;;10.23;;
8702;SDS011;9002;42.708;23.186;2023-08-20T06:23:06;10.87;;;9.83;;
8702;SDS011;9002;42.708;23.186;2023-08-20T06:25:33;12.00;;;10.67;;
8702;SDS011;9002;42.708;23.186;2023-08-20T06:28:00;11.60;;;10.43;;
8702;SDS011;9002;42.708;23.186;2023-08-20T06:30:27;11.03;;;10.03;;
8702;SDS011;9002;42.708;23.186;2023-08-20T06:32:53;10.90;;;9.80;;
8702;SDS011;9002;42.708;23.186;2023-08-20T06:35:20;11.00;;;9.90;;
8702;SDS011;9002;42.708;23.186;2023-08-20T06:37:48;10.77;;;9.87;;
8702;SDS011;9002;42.708;23.186;2023-08-20T06:40:15;11.27;;;9.70;;
8702;SDS011;9002;42.708;23.186;2023-08-20T06:42:42;13.50;;;11.47;;
8702;SDS011;9002;42.708;23.186;2023-08-20T06:45:09;11.57;;;9.33;;
8702;SDS011;9002;42.708;23.186;2023-08-20T06:47:35;12.17;;;10.97;;
8702;SDS011;9002;42.708;23.186;2023-08-20T06:50:02;12.27;;;10.00;;
8702;SDS011;9002;42.708;23.186;2023-08-20T06:52:31;11.63;;;9.47;;
8702;SDS011;9002;42.708;23.186;2023-08-20T06:54:59;10.00;;;9.00;;
8702;SDS011;9002;42.708;23.186;2023-08-20T06:57:26;9.60;;;8.70;;
8702;SDS011;9002;42.708;23.186;2023-08-20T06:59:52;10.50;;;9.03;;
8702;SDS011;9002;42.708;23.186;2023-08-20T07:02:19;10.33;;;9.13;;
8702;SDS011;9002;42.708;23.186;2023-08-20T07:04:46;10.93;;;9.70;;
8702;SDS011;9002;42.708;23.186;2023-08-20T07:07:13;12.67;;;9.70;;
8702;SDS011;9002;42.708;23.186;2023-08-20T07:09:39;10.50;;;9.40;;
8702;SDS011;9002;42.708;23.186;2023-08-20T07:12:08;10.00;;;9.00;;
8702;SDS011;9002;42.708;23.186;2023-08-20T07:14:35;9.37;;;8.40;;
8702;SDS011;9002;42.708;23.186;2023-08-20T07:17:01;9.73;;;8.83;;
8702;SDS011;9002;42.708;23.186;2023-08-20T07:19:28;9.90;;;8.93;;
8702;SDS011;9002;42.708;23.186;2023-08-20T07:21:55;10.00;;;8.57;;
8702;SDS011;9002;42.708;23.186;2023-08-20T07:24:22;10.03;;;8.83;;
8702;SDS011;9002;42.708;23.186;2023-08-20T07:26:50;9.60;;;8.70;;
8702;SDS011;9002;42.708;23.186;2023-08-20T07:29:18;9.30;;;7.77;;
8702;SDS011;9002;42.708;23.186;2023-08-20T07:31:46;8.83;;;7.93;;
8702;SDS011;9002;42.708;23.186;2023-08-20T07:34:12;11.13;;;8.47;;
8702;SDS011;9002;42.708;23.186;2023-08-20T07:36:39;9.37;;;7.90;;
8702;SDS011;9002;42.708;23.186;2023-08-20T07:39:06;9.60;;;8.03;;
8702;SDS011;9002;42.708;23.186;2023-08-20T07:41:33;8.30;;;7.60;;
8702;SDS011;9002;42.708;23.186;2023-08-20T07:44:00;9.07;;;7.83;;
8702;SDS011;9002;42.708;23.186;2023-08-20T07:46:28;8.73;;;7.93;;
8702;SDS011;9002;42.708;23.186;2023-08-20T07:48:55;8.27;;;7.47;;
8702;SDS011;9002;42.708;23.186;2023-08-20T07:51:22;10.90;;;8.93;;
8702;SDS011;9002;42.708;23.186;2023-08-20T07:53:49;8.23;;;7.37;;
8702;SDS011;9002;42.708;23.186;2023-08-20T07:56:15;8.53;;;7.63;;
8702;SDS011;9002;42.708;23.186;2023-08-20T07:58:42;8.57;;;7.50;;
8702;SDS011;9002;42.708;23.186;2023-08-20T08:01:09;8.97;;;8.03;;
8702;SDS011;9002;42.708;23.186;2023-08-20T08:03:37;9.03;;;8.20;;
8702;SDS011;9002;42.708;23.186;2023-08-20T08:06:03;7.83;;;6.80;;
8702;SDS011;9002;42.708;23.186;2023-08-20T08:08:30;9.73;;;7.17;;
8702;SDS011;9002;42.708;23.186;2023-08-20T08:10:57;8.67;;;7.30;;
8702;SDS011;9002;42.708;23.186;2023-08-20T08:13:24;8.40;;;7.60;;
8702;SDS011;9002;42.708;23.186;2023-08-20T08:15:51;9.50;;;7.37;;
8702;SDS011;9002;42.708;23.186;2023-08-20T08:18:29;8.30;;;7.40;;
8702;SDS011;9002;42.708;23.186;2023-08-20T08:20:57;10.00;;;7.50;;
8702;SDS011;9002;42.708;23.186;2023-08-20T08:23:24;7.30;;;6.57;;
8702;SDS011;9002;42.708;23.186;2023-08-20T08:25:50;10.50;;;6.97;;
8702;SDS011;9002;42.708;23.186;2023-08-20T08:28:20;7.60;;;6.77;;
8702;SDS011;9002;42.708;23.186;2023-08-20T08:30:47;8.90;;;7.63;;
8702;SDS011;9002;42.708;23.186;2023-08-20T08:33:14;8.33;;;6.73;;
8702;SDS011;9002;42.708;23.186;2023-08-20T08:35:40;7.13;;;6.43;;
8702;SDS011;9002;42.708;23.186;2023-08-20T08:38:08;7.43;;;6.83;;
8702;SDS011;9002;42.708;23.186;2023-08-20T08:40:35;8.17;;;6.73;;
8702;SDS011;9002;42.708;23.186;2023-08-20T08:43:02;7.20;;;6.60;;
8702;SDS011;9002;42.708;23.186;2023-08-20T08:45:29;8.03;;;7.20;;
8702;SDS011;9002;42.708;23.186;2023-08-20T08:47:56;7.40;;;6.70;;
8702;SDS011;9002;42.708;23.186;2023-08-20T08:50:25;7.23;;;6.53;;
8702;SDS011;9002;42.708;23.186;2023-08-20T08:52:52;6.70;;;6.17;;
8702;SDS011;9002;42.708;23.186;2023-08-20T08:55:22;9.47;;;6.30;;
8702;SDS011;9002;42.708;23.186;2023-08-20T08:57:49;7.10;;;6.47;;
8702;SDS011;9002;42.708;23.186;2023-08-20T09:00:15;6.90;;;6.20;;
8702;SDS011;9002;42.708;23.186;2023-08-20T09:02:42;8.03;;;6.37;;
8702;SDS011;9002;42.708;23.186;2023-08-20T09:05:09;6.80;;;6.17;;
8702;SDS011;9002;42.708;23.186;2023-08-20T09:07:37;6.40;;;5.90;;
8702;SDS011;9002;42.708;23.186;2023-08-20T09:10:08;7.23;;;6.47;;
8702;SDS011;9002;42.708;23.186;2023-08-20T09:12:36;7.17;;;5.90;;
8702;SDS011;9002;42.708;23.186;2023-08-20T09:15:04;7.13;;;6.53;;
8702;SDS011;9002;42.708;23.186;2023-08-20T09:17:36;7.37;;;6.07;;
8702;SDS011;9002;42.708;23.186;2023-08-20T09:20:03;6.30;;;5.70;;
8702;SDS011;9002;42.708;23.186;2023-08-20T09:22:52;6.37;;;5.70;;
8702;SDS011;9002;42.708;23.186;2023-08-20T09:25:19;6.57;;;5.83;;
8702;SDS011;9002;42.708;23.186;2023-08-20T09:27:47;6.60;;;6.10;;
8702;SDS011;9002;42.708;23.186;2023-08-20T09:30:17;8.03;;;5.87;;
8702;SDS011;9002;42.708;23.186;2023-08-20T09:32:45;6.10;;;5.47;;
8702;SDS011;9002;42.708;23.186;2023-08-20T09:35:29;7.07;;;5.33;;
8702;SDS011;9002;42.708;23.186;2023-08-20T09:37:58;6.07;;;5.57;;
8702;SDS011;9002;42.708;23.186;2023-08-20T09:40:26;6.30;;;5.43;;
8702;SDS011;9002;42.708;23.186;2023-08-20T09:42:55;5.80;;;5.17;;
8702;SDS011;9002;42.708;23.186;2023-08-20T09:45:22;5.93;;;5.40;;
8702;SDS011;9002;42.708;23.186;2023-08-20T09:47:52;5.87;;;5.30;;
8702;SDS011;9002;42.708;23.186;2023-08-20T09:50:22;7.10;;;6.07;;
8702;SDS011;9002;42.708;23.186;2023-08-20T09:52:53;7.23;;;5.83;;
8702;SDS011;9002;42.708;23.186;2023-08-20T09:55:26;6.50;;;5.47;;
8702;SDS011;9002;42.708;23.186;2023-08-20T09:57:58;5.70;;;5.07;;
8702;SDS011;9002;42.708;23.186;2023-08-20T10:00:27;6.83;;;5.33;;
8702;SDS011;9002;42.708;23.186;2023-08-20T10:02:55;5.50;;;4.90;;
8702;SDS011;9002;42.708;23.186;2023-08-20T10:05:22;5.10;;;4.60;;
8702;SDS011;9002;42.708;23.186;2023-08-20T10:07:50;5.00;;;4.50;;
8702;SDS011;9002;42.708;23.186;2023-08-20T10:10:17;5.93;;;4.80;;
8702;SDS011;9002;42.708;23.186;2023-08-20T10:12:44;5.07;;;4.67;;
8702;SDS011;9002;42.708;23.186;2023-08-20T10:15:13;5.20;;;4.80;;
8702;SDS011;9002;42.708;23.186;2023-08-20T10:17:41;5.40;;;4.90;;
8702;SDS011;9002;42.708;23.186;2023-08-20T10:20:09;4.83;;;4.27;;
8702;SDS011;9002;42.708;23.186;2023-08-20T10:22:36;7.20;;;4.40;;
8702;SDS011;9002;42.708;23.186;2023-08-20T10:25:05;5.03;;;4.50;;
8702;SDS011;9002;42.708;23.186;2023-08-20T10:27:35;6.50;;;4.70;;
8702;SDS011;9002;42.708;23.186;2023-08-20T10:30:07;6.27;;;4.60;;
8702;SDS011;9002;42.708;23.186;2023-08-20T10:32:45;4.90;;;4.50;;
8702;SDS011;9002;42.708;23.186;2023-08-20T10:35:15;5.00;;;4.50;;
8702;SDS011;9002;42.708;23.186;2023-08-20T10:40:53;5.30;;;4.90;;
8702;SDS011;9002;42.708;23.186;2023-08-20T10:43:27;6.10;;;4.73;;
8702;SDS011;9002;42.708;23.186;2023-08-20T10:46:08;5.20;;;4.70;;
8702;SDS011;9002;42.708;23.186;2023-08-20T10:48:42;6.00;;;4.70;;
8702;SDS011;9002;42.708;23.186;2023-08-20T10:51:12;4.70;;;4.30;;
8702;SDS011;9002;42.708;23.186;2023-08-20T10:53:41;7.73;;;4.60;;
8702;SDS011;9002;42.708;23.186;2023-08-20T10:56:13;4.80;;;4.40;;
8702;SDS011;9002;42.708;23.186;2023-08-20T10:58:41;4.80;;;4.30;;
8702;SDS011;9002;42.708;23.186;2023-08-20T11:01:12;4.40;;;4.00;;
8702;SDS011;9002;42.708;23.186;2023-08-20T11:03:45;4.70;;;4.30;;
8702;SDS011;9002;42.708;23.186;2023-08-20T11:06:13;4.77;;;4.23;;
8702;SDS011;9002;42.708;23.186;2023-08-20T11:08:41;5.17;;;4.57;;
8702;SDS011;9002;42.708;23.186;2023-08-20T11:11:08;4.67;;;4.27;;
8702;SDS011;9002;42.708;23.186;2023-08-20T11:13:35;4.40;;;4.10;;
8702;SDS011;9002;42.708;23.186;2023-08-20T11:16:02;4.90;;;4.40;;
8702;SDS011;9002;42.708;23.186;2023-08-20T11:18:30;5.90;;;4.37;;
8702;SDS011;9002;42.708;23.186;2023-08-20T11:21:00;6.07;;;4.57;;
8702;SDS011;9002;42.708;23.186;2023-08-20T11:23:28;5.90;;;4.60;;
8702;SDS011;9002;42.708;23.186;2023-08-20T11:25:55;6.00;;;4.50;;
8702;SDS011;9002;42.708;23.186;2023-08-20T11:28:22;4.40;;;4.10;;
8702;SDS011;9002;42.708;23.186;2023-08-20T11:30:50;4.63;;;4.20;;
8702;SDS011;9002;42.708;23.186;2023-08-20T11:33:17;5.10;;;4.60;;
8702;SDS011;9002;42.708;23.186;2023-08-20T11:35:44;5.33;;;4.83;;
8702;SDS011;9002;42.708;23.186;2023-08-20T11:38:13;5.50;;;5.00;;
8702;SDS011;9002;42.708;23.186;2023-08-20T11:40:40;5.13;;;4.57;;
8702;SDS011;9002;42.708;23.186;2023-08-20T11:43:07;4.83;;;4.43;;
8702;SDS011;9002;42.708;23.186;2023-08-20T11:45:43;5.33;;;4.90;;
8702;SDS011;9002;42.708;23.186;2023-08-20T11:48:11;5.20;;;4.73;;
8702;SDS011;9002;42.708;23.186;2023-08-20T11:50:37;5.57;;;5.07;;
8702;SDS011;9002;42.708;23.186;2023-08-20T11:53:05;5.27;;;4.40;;
8702;SDS011;9002;42.708;23.186;2023-08-20T11:55:34;6.07;;;5.47;;
8702;SDS011;9002;42.708;23.186;2023-08-20T11:58:01;6.13;;;5.53;;
8702;SDS011;9002;42.708;23.186;2023-08-20T12:00:29;5.10;;;4.60;;
8702;SDS011;9002;42.708;23.186;2023-08-20T12:02:57;5.60;;;5.10;;
8702;SDS011;9002;42.708;23.186;2023-08-20T12:05:26;5.57;;;5.07;;
8702;SDS011;9002;42.708;23.186;2023-08-20T12:07:56;5.00;;;4.50;;
8702;SDS011;9002;42.708;23.186;2023-08-20T12:10:24;5.33;;;4.93;;
8702;SDS011;9002;42.708;23.186;2023-08-20T12:12:53;5.10;;;4.70;;
8702;SDS011;9002;42.708;23.186;2023-08-20T12:15:21;5.47;;;5.00;;
8702;SDS011;9002;42.708;23.186;2023-08-20T12:17:58;5.60;;;5.10;;
8702;SDS011;9002;42.708;23.186;2023-08-20T12:20:27;5.13;;;4.73;;
8702;SDS011;9002;42.708;23.186;2023-08-20T12:22:56;5.57;;;5.10;;
8702;SDS011;9002;42.708;23.186;2023-08-20T12:25:24;5.50;;;4.87;;
8702;SDS011;9002;42.708;23.186;2023-08-20T12:27:52;5.53;;;5.07;;
8702;SDS011;9002;42.708;23.186;2023-08-20T12:30:19;7.87;;;5.07;;
8702;SDS011;9002;42.708;23.186;2023-08-20T12:32:46;5.10;;;4.60;;
8702;SDS011;9002;42.708;23.186;2023-08-20T12:35:13;5.10;;;4.53;;
8702;SDS011;9002;42.708;23.186;2023-08-20T12:37:40;5.27;;;4.37;;
8702;SDS011;9002;42.708;23.186;2023-08-20T12:40:07;5.20;;;4.70;;
8702;SDS011;9002;42.708;23.186;2023-08-20T12:42:36;5.80;;;4.73;;
8702;SDS011;9002;42.708;23.186;2023-08-20T12:45:05;7.10;;;4.50;;
8702;SDS011;9002;42.708;23.186;2023-08-20T12:47:33;5.27;;;4.77;;
8702;SDS011;9002;42.708;23.186;2023-08-20T12:50:00;5.63;;;4.93;;
8702;SDS011;9002;42.708;23.186;2023-08-20T12:52:29;6.60;;;6.00;;
8702;SDS011;9002;42.708;23.186;2023-08-20T12:54:56;5.17;;;4.67;;
8702;SDS011;9002;42.708;23.186;2023-08-20T12:57:23;5.83;;;5.27;;
8702;SDS011;9002;42.708;23.186;2023-08-20T12:59:49;5.30;;;4.60;;
8702;SDS011;9002;42.708;23.186;2023-08-20T13:02:17;5.10;;;4.60;;
8702;SDS011;9002;42.708;23.186;2023-08-20T13:04:44;5.20;;;4.70;;
8702;SDS011;9002;42.708;23.186;2023-08-20T13:07:12;5.07;;;4.63;;
8702;SDS011;9002;42.708;23.186;2023-08-20T13:09:39;7.07;;;5.17;;
8702;SDS011;9002;42.708;23.186;2023-08-20T13:12:07;5.10;;;4.70;;
8702;SDS011;9002;42.708;23.186;2023-08-20T13:14:37;5.20;;;4.80;;
8702;SDS011;9002;42.708;23.186;2023-08-20T13:17:06;5.10;;;4.70;;
8702;SDS011;9002;42.708;23.186;2023-08-20T13:19:34;4.93;;;4.53;;
8702;SDS011;9002;42.708;23.186;2023-08-20T13:22:01;5.13;;;4.63;;
8702;SDS011;9002;42.708;23.186;2023-08-20T13:24:28;5.30;;;4.80;;
8702;SDS011;9002;42.708;23.186;2023-08-20T13:26:55;5.23;;;4.83;;
8702;SDS011;9002;42.708;23.186;2023-08-20T13:29:21;5.20;;;4.80;;
8702;SDS011;9002;42.708;23.186;2023-08-20T13:31:48;5.17;;;4.70;;
8702;SDS011;9002;42.708;23.186;2023-08-20T13:34:15;5.10;;;4.70;;
8702;SDS011;9002;42.708;23.186;2023-08-20T13:36:43;6.37;;;5.13;;
8702;SDS011;9002;42.708;23.186;2023-08-20T13:39:11;5.30;;;4.80;;
8702;SDS011;9002;42.708;23.186;2023-08-20T13:41:39;4.70;;;4.27;;
8702;SDS011;9002;42.708;23.186;2023-08-20T13:44:06;5.70;;;5.10;;
8702;SDS011;9002;42.708;23.186;2023-08-20T13:46:34;5.23;;;4.83;;
8702;SDS011;9002;42.708;23.186;2023-08-20T13:49:01;6.70;;;4.37;;
8702;SDS011;9002;42.708;23.186;2023-08-20T13:51:28;5.40;;;5.00;;
8702;SDS011;9002;42.708;23.186;2023-08-20T13:53:56;5.20;;;4.70;;
8702;SDS011;9002;42.708;23.186;2023-08-20T13:56:23;7.67;;;4.73;;
8702;SDS011;9002;42.708;23.186;2023-08-20T13:58:50;5.80;;;5.30;;
8702;SDS011;9002;42.708;23.186;2023-08-20T14:01:17;5.10;;;4.60;;
8702;SDS011;9002;42.708;23.186;2023-08-20T14:03:44;5.50;;;5.00;;
8702;SDS011;9002;42.708;23.186;2023-08-20T14:06:11;5.60;;;5.20;;
8702;SDS011;9002;42.708;23.186;2023-08-20T14:08:37;5.10;;;4.60;;
8702;SDS011;9002;42.708;23.186;2023-08-20T14:11:06;5.13;;;4.63;;
8702;SDS011;9002;42.708;23.186;2023-08-20T14:13:32;5.20;;;4.17;;
8702;SDS011;9002;42.708;23.186;2023-08-20T14:15:59;5.27;;;4.80;;
8702;SDS011;9002;42.708;23.186;2023-08-20T14:18:26;4.87;;;4.47;;
8702;SDS011;9002;42.708;23.186;2023-08-20T14:20:53;5.37;;;4.87;;
8702;SDS011;9002;42.708;23.186;2023-08-20T14:23:20;5.27;;;4.87;;
8702;SDS011;9002;42.708;23.186;2023-08-20T14:25:46;5.20;;;4.70;;
8702;SDS011;9002;42.708;23.186;2023-08-20T14:28:14;4.87;;;4.37;;
8702;SDS011;9002;42.708;23.186;2023-08-20T14:30:41;4.97;;;4.57;;
8702;SDS011;9002;42.708;23.186;2023-08-20T14:33:08;6.07;;;4.40;;
8702;SDS011;9002;42.708;23.186;2023-08-20T14:35:34;5.00;;;4.60;;
8702;SDS011;9002;42.708;23.186;2023-08-20T14:38:01;5.37;;;4.83;;
8702;SDS011;9002;42.708;23.186;2023-08-20T14:40:28;4.87;;;4.33;;
8702;SDS011;9002;42.708;23.186;2023-08-20T14:42:56;5.43;;;4.90;;
8702;SDS011;9002;42.708;23.186;2023-08-20T14:45:25;5.17;;;4.67;;
8702;SDS011;9002;42.708;23.186;2023-08-20T14:47:51;5.67;;;4.80;;
8702;SDS011;9002;42.708;23.186;2023-08-20T14:50:18;5.90;;;5.33;;
8702;SDS011;9002;42.708;23.186;2023-08-20T14:52:45;4.90;;;4.40;;
8702;SDS011;9002;42.708;23.186;2023-08-20T14:55:16;4.90;;;4.50;;
8702;SDS011;9002;42.708;23.186;2023-08-20T14:57:43;5.07;;;4.57;;
8702;SDS011;9002;42.708;23.186;2023-08-20T15:00:10;4.47;;;4.17;;
8702;SDS011;9002;42.708;23.186;2023-08-20T15:02:41;5.03;;;4.53;;